Time,TemperatureF,DewpointF,PressureIn,WindDirection,WindDirectionDegrees,WindSpeedMPH,WindSpeedGustMPH,Humidity,HourlyPrecipIn,Conditions,Clouds,dailyrainin,SolarRadiationWatts/m^2,SoftwareType,DateUTC
2013-07-02 00:01:00,74.6,73.7,29.99,SSW,212,3.0,6.0,97,0.00,,,0.00,0,Wunderground v.1.15,2013-07-02 04:01:00,
2013-07-02 00:02:00,74.6,73.7,29.99,WSW,240,4.0,6.0,97,0.00,,,0.00,0,Wunderground v.1.15,2013-07-02 04:02:00,
2013-07-02 00:04:00,74.6,73.7,29.99,West,261,4.0,6.0,97,0.00,,,0.00,0,Wunderground v.1.15,2013-07-02 04:04:00,
2013-07-02 00:08:00,74.6,73.7,29.99,SW,232,4.0,6.0,97,0.00,,,0.00,0,Wunderground v.1.15,2013-07-02 04:08:00,
2013-07-02 00:14:00,74.6,73.7,29.99,SW,220,4.0,4.0,97,0.00,,,0.00,0,Wunderground v.1.15,2013-07-02 04:14:00,
2013-07-02 00:20:00,74.6,73.7,29.99,SW,223,3.0,7.0,97,0.00,,,0.00,0,Wunderground v.1.15,2013-07-02 04:20:00,
2013-07-02 00:26:00,74.6,73.7,29.99,SW,226,4.0,7.0,97,0.00,,,0.00,0,Wunderground v.1.15,2013-07-02 04:26:00,
2013-07-02 00:32:00,74.6,73.7,29.99,South,171,4.0,4.0,97,0.00,,,0.00,0,Wunderground v.1.15,2013-07-02 04:32:00,
2013-07-02 00:38:00,74.4,73.5,29.99,SW,233,4.0,4.0,97,0.00,,,0.00,0,Wunderground v.1.15,2013-07-02 04:38:00,
2013-07-02 00:44:00,74.4,73.5,29.99,SSW,209,4.0,4.0,97,0.00,,,0.00,0,Wunderground v.1.15,2013-07-02 04:44:00,
2013-07-02 00:50:00,74.4,73.5,29.99,South,188,3.0,5.0,97,0.00,,,0.00,0,Wunderground v.1.15,2013-07-02 04:50:00,
2013-07-02 00:56:00,74.4,73.5,29.99,South,186,4.0,5.0,97,0.00,,,0.00,0,Wunderground v.1.15,2013-07-02 04:56:00,
2013-07-02 01:02:00,74.4,73.5,30.00,South,185,4.0,4.0,97,0.00,,,0.00,0,Wunderground v.1.15,2013-07-02 05:02:00,
2013-07-02 01:08:00,74.4,73.5,30.00,SSW,206,4.0,5.0,97,0.00,,,0.00,0,Wunderground v.1.15,2013-07-02 05:08:00,
2013-07-02 01:14:00,74.4,73.5,30.00,SSW,203,4.0,5.0,97,0.00,,,0.00,0,Wunderground v.1.15,2013-07-02 05:14:00,
2013-07-02 01:20:00,74.2,73.3,29.99,South,186,4.0,7.0,97,0.00,,,0.00,0,Wunderground v.1.15,2013-07-02 05:20:00,
2013-07-02 01:24:00,74.0,73.1,29.99,SW,232,5.0,8.0,97,0.00,,,0.00,0,Wunderground v.1.15,2013-07-02 05:24:00,
2013-07-02 01:30:00,74.0,73.1,30.00,SSW,196,4.0,5.0,97,0.00,,,0.00,0,Wunderground v.1.15,2013-07-02 05:30:00,
2013-07-02 01:36:00,74.0,73.1,30.00,South,181,4.0,6.0,97,0.00,,,0.00,0,Wunderground v.1.15,2013-07-02 05:36:00,
2013-07-02 01:42:00,74.0,73.1,30.00,South,171,4.0,4.0,97,0.00,,,0.00,0,Wunderground v.1.15,2013-07-02 05:42:00,
2013-07-02 01:48:00,74.0,73.1,30.00,SW,219,3.0,4.0,97,0.00,,,0.00,0,Wunderground v.1.15,2013-07-02 05:48:00,
2013-07-02 01:54:00,74.0,73.1,30.00,SW,232,5.0,12.0,97,0.00,,,0.00,0,Wunderground v.1.15,2013-07-02 05:54:00,
2013-07-02 02:00:00,73.9,72.7,30.01,WSW,243,7.0,7.0,96,0.00,,,0.00,0,Wunderground v.1.15,2013-07-02 06:00:00,
2013-07-02 02:06:00,73.9,72.7,30.01,SSW,205,6.0,7.0,96,0.00,,,0.00,0,Wunderground v.1.15,2013-07-02 06:06:00,
2013-07-02 02:12:00,73.9,72.7,30.01,SSW,195,6.0,10.0,96,0.00,,,0.00,0,Wunderground v.1.15,2013-07-02 06:12:00,
2013-07-02 02:18:00,73.9,72.7,30.01,SSW,213,6.0,10.0,96,0.00,,,0.00,0,Wunderground v.1.15,2013-07-02 06:18:00,
2013-07-02 02:24:00,73.9,72.7,30.01,SW,230,5.0,5.0,96,0.00,,,0.00,0,Wunderground v.1.15,2013-07-02 06:24:00,
2013-07-02 02:30:00,73.9,72.7,30.01,WSW,247,6.0,6.0,96,0.00,,,0.00,0,Wunderground v.1.15,2013-07-02 06:30:00,
2013-07-02 02:36:00,73.7,72.5,30.01,SW,233,5.0,6.0,96,0.00,,,0.00,0,Wunderground v.1.15,2013-07-02 06:36:00,
2013-07-02 02:42:00,73.7,72.5,30.01,South,176,6.0,7.0,96,0.00,,,0.00,0,Wunderground v.1.15,2013-07-02 06:42:00,
2013-07-02 02:48:00,73.7,72.5,30.01,SW,216,5.0,7.0,96,0.00,,,0.00,0,Wunderground v.1.15,2013-07-02 06:48:00,
2013-07-02 02:54:00,73.7,72.5,30.01,SSW,195,4.0,7.0,96,0.00,,,0.00,0,Wunderground v.1.15,2013-07-02 06:54:00,
2013-07-02 03:00:00,73.7,72.5,30.01,SSW,205,3.0,5.0,96,0.00,,,0.00,0,Wunderground v.1.15,2013-07-02 07:00:00,
2013-07-02 03:06:00,73.5,72.3,30.01,SE,144,5.0,6.0,96,0.00,,,0.00,0,Wunderground v.1.15,2013-07-02 07:06:00,
2013-07-02 03:12:00,73.5,72.3,30.01,SW,236,4.0,7.0,96,0.00,,,0.00,0,Wunderground v.1.15,2013-07-02 07:12:00,
2013-07-02 03:18:00,73.5,72.3,30.02,SW,216,3.0,7.0,96,0.00,,,0.00,0,Wunderground v.1.15,2013-07-02 07:18:00,
2013-07-02 03:24:00,73.5,72.3,30.02,SSW,206,4.0,6.0,96,0.00,,,0.00,0,Wunderground v.1.15,2013-07-02 07:24:00,
2013-07-02 03:30:00,73.5,72.3,30.02,South,176,3.0,3.0,96,0.00,,,0.00,0,Wunderground v.1.15,2013-07-02 07:30:00,
2013-07-02 03:36:00,73.5,72.3,30.02,South,188,4.0,4.0,96,0.00,,,0.00,0,Wunderground v.1.15,2013-07-02 07:36:00,
2013-07-02 03:42:00,73.5,72.3,30.02,SSW,192,5.0,5.0,96,0.00,,,0.00,0,Wunderground v.1.15,2013-07-02 07:42:00,
2013-07-02 03:48:00,73.5,72.3,30.02,WSW,256,4.0,5.0,96,0.00,,,0.00,0,Wunderground v.1.15,2013-07-02 07:48:00,
2013-07-02 03:54:00,73.5,72.3,30.02,SSW,195,4.0,6.0,96,0.00,,,0.00,0,Wunderground v.1.15,2013-07-02 07:54:00,
2013-07-02 04:00:00,73.5,72.3,30.02,SW,222,4.0,5.0,96,0.00,,,0.00,0,Wunderground v.1.15,2013-07-02 08:00:00,
2013-07-02 04:06:00,73.5,72.3,30.02,South,179,4.0,7.0,96,0.00,,,0.00,0,Wunderground v.1.15,2013-07-02 08:06:00,
2013-07-02 04:12:00,73.5,72.3,30.02,South,172,5.0,5.0,96,0.00,,,0.00,0,Wunderground v.1.15,2013-07-02 08:12:00,
2013-07-02 04:18:00,73.5,72.6,30.03,South,181,3.0,6.0,97,0.00,,,0.00,0,Wunderground v.1.15,2013-07-02 08:18:00,
2013-07-02 04:24:00,73.5,72.6,30.03,South,191,4.0,7.0,97,0.00,,,0.00,0,Wunderground v.1.15,2013-07-02 08:24:00,
2013-07-02 04:31:00,73.5,72.6,30.03,SSW,209,4.0,5.0,97,0.00,,,0.00,0,Wunderground v.1.15,2013-07-02 08:31:00,
2013-07-02 04:36:00,73.5,72.6,30.03,SW,220,4.0,7.0,97,0.00,,,0.00,0,Wunderground v.1.15,2013-07-02 08:36:00,
2013-07-02 04:42:00,73.5,72.6,30.03,SSW,209,3.0,3.0,97,0.00,,,0.00,0,Wunderground v.1.15,2013-07-02 08:42:00,
2013-07-02 04:48:00,73.5,72.6,30.03,WSW,254,4.0,7.0,97,0.00,,,0.00,0,Wunderground v.1.15,2013-07-02 08:48:00,
2013-07-02 04:54:00,73.5,72.6,30.03,South,188,3.0,5.0,97,0.00,,,0.00,0,Wunderground v.1.15,2013-07-02 08:54:00,
2013-07-02 05:00:00,73.5,72.6,30.03,SSW,192,2.0,2.0,97,0.00,,,0.00,0,Wunderground v.1.15,2013-07-02 09:00:00,
2013-07-02 05:06:00,73.5,72.6,30.03,SW,230,3.0,3.0,97,0.00,,,0.00,0,Wunderground v.1.15,2013-07-02 09:06:00,
2013-07-02 05:12:00,73.5,72.6,30.03,SW,223,4.0,6.0,97,0.00,,,0.00,0,Wunderground v.1.15,2013-07-02 09:12:00,
2013-07-02 05:18:00,73.5,72.6,30.04,SSW,192,3.0,6.0,97,0.00,,,0.00,0,Wunderground v.1.15,2013-07-02 09:18:00,
2013-07-02 05:24:00,73.5,72.6,30.04,South,181,3.0,3.0,97,0.00,,,0.00,0,Wunderground v.1.15,2013-07-02 09:24:00,
2013-07-02 05:30:00,73.5,72.6,30.04,SSE,164,2.0,6.0,97,0.00,,,0.00,0,Wunderground v.1.15,2013-07-02 09:30:00,
2013-07-02 05:36:00,73.5,72.6,30.04,WSW,241,2.0,4.0,97,0.00,,,0.00,0,Wunderground v.1.15,2013-07-02 09:36:00,
2013-07-02 05:42:00,73.5,72.6,30.04,SW,220,2.0,2.0,97,0.00,,,0.00,0,Wunderground v.1.15,2013-07-02 09:42:00,
2013-07-02 05:48:00,73.7,72.8,30.05,WSW,243,2.0,4.0,97,0.00,,,0.00,0,Wunderground v.1.15,2013-07-02 09:48:00,
2013-07-02 05:54:00,73.7,72.8,30.05,South,179,2.0,4.0,97,0.00,,,0.00,0,Wunderground v.1.15,2013-07-02 09:54:00,
2013-07-02 06:00:00,73.7,72.8,30.06,South,179,4.0,6.0,97,0.00,,,0.00,0,Wunderground v.1.15,2013-07-02 10:00:00,
2013-07-02 06:06:00,73.7,72.8,30.06,SSW,210,4.0,6.0,97,0.00,,,0.00,0,Wunderground v.1.15,2013-07-02 10:06:00,
2013-07-02 06:12:00,73.7,72.8,30.06,SSW,193,4.0,4.0,97,0.00,,,0.00,0,Wunderground v.1.15,2013-07-02 10:12:00,
2013-07-02 06:18:00,73.9,73.0,30.07,SW,216,4.0,5.0,97,0.00,,,0.00,5,Wunderground v.1.15,2013-07-02 10:18:00,
2013-07-02 06:24:00,73.9,73.0,30.07,SW,230,3.0,7.0,97,0.00,,,0.00,14,Wunderground v.1.15,2013-07-02 10:24:00,
2013-07-02 06:30:00,73.9,73.0,30.07,SSW,209,3.0,3.0,97,0.00,,,0.00,18,Wunderground v.1.15,2013-07-02 10:30:00,
2013-07-02 06:36:00,74.0,73.1,30.07,SSW,208,3.0,6.0,97,0.00,,,0.00,35,Wunderground v.1.15,2013-07-02 10:36:00,
2013-07-02 06:42:00,74.0,72.8,30.07,SW,234,3.0,8.0,96,0.00,,,0.00,32,Wunderground v.1.15,2013-07-02 10:42:00,
2013-07-02 06:48:00,74.0,72.8,30.08,South,179,3.0,8.0,96,0.00,,,0.00,40,Wunderground v.1.15,2013-07-02 10:48:00,
2013-07-02 06:54:00,74.0,72.8,30.08,SW,219,3.0,5.0,96,0.00,,,0.00,46,Wunderground v.1.15,2013-07-02 10:54:00,
2013-07-02 07:00:00,74.0,72.8,30.08,South,181,3.0,3.0,96,0.00,,,0.00,48,Wunderground v.1.15,2013-07-02 11:00:00,
2013-07-02 07:06:00,74.2,73.0,30.08,SSW,192,4.0,4.0,96,0.00,,,0.00,44,Wunderground v.1.15,2013-07-02 11:06:00,
2013-07-02 07:12:00,74.4,73.2,30.08,SW,219,3.0,4.0,96,0.00,,,0.00,48,Wunderground v.1.15,2013-07-02 11:12:00,
2013-07-02 07:18:00,74.4,73.2,30.09,SW,224,3.0,5.0,96,0.00,,,0.00,48,Wunderground v.1.15,2013-07-02 11:18:00,
2013-07-02 07:24:00,74.6,73.4,30.09,SSW,209,2.0,3.0,96,0.00,,,0.00,46,Wunderground v.1.15,2013-07-02 11:24:00,
2013-07-02 07:30:00,74.6,73.4,30.09,SW,219,3.0,5.0,96,0.00,,,0.00,55,Wunderground v.1.15,2013-07-02 11:30:00,
2013-07-02 07:36:00,74.6,73.4,30.09,SSW,198,3.0,5.0,96,0.00,,,0.00,55,Wunderground v.1.15,2013-07-02 11:36:00,
2013-07-02 07:42:00,74.6,73.4,30.09,WSW,248,3.0,3.0,96,0.00,,,0.00,35,Wunderground v.1.15,2013-07-02 11:42:00,
2013-07-02 07:48:00,74.6,73.4,30.09,SSE,158,3.0,3.0,96,0.00,,,0.00,49,Wunderground v.1.15,2013-07-02 11:48:00,
2013-07-02 07:54:00,74.6,73.4,30.09,SW,216,3.0,5.0,96,0.00,,,0.00,49,Wunderground v.1.15,2013-07-02 11:54:00,
2013-07-02 08:00:00,74.7,73.5,30.09,South,179,3.0,3.0,96,0.00,,,0.00,51,Wunderground v.1.15,2013-07-02 12:00:00,
2013-07-02 08:06:00,74.7,73.5,30.09,SSE,151,3.0,7.0,96,0.00,,,0.00,74,Wunderground v.1.15,2013-07-02 12:06:00,
2013-07-02 08:12:00,74.9,73.4,30.09,SW,223,3.0,7.0,95,0.00,,,0.00,55,Wunderground v.1.15,2013-07-02 12:12:00,
2013-07-02 08:18:00,74.9,73.4,30.10,SW,222,3.0,7.0,95,0.00,,,0.00,46,Wunderground v.1.15,2013-07-02 12:18:00,
2013-07-02 08:24:00,74.9,73.4,30.10,SSW,196,4.0,6.0,95,0.00,,,0.00,60,Wunderground v.1.15,2013-07-02 12:24:00,
2013-07-02 08:30:00,74.9,73.4,30.10,WSW,247,4.0,4.0,95,0.00,,,0.00,58,Wunderground v.1.15,2013-07-02 12:30:00,
2013-07-02 08:36:00,74.9,73.4,30.10,SW,216,4.0,6.0,95,0.00,,,0.00,48,Wunderground v.1.15,2013-07-02 12:36:00,
2013-07-02 08:42:00,75.1,73.6,30.10,SW,223,4.0,5.0,95,0.00,,,0.00,53,Wunderground v.1.15,2013-07-02 12:42:00,
2013-07-02 08:48:00,75.1,73.6,30.11,SSW,206,3.0,5.0,95,0.00,,,0.00,60,Wunderground v.1.15,2013-07-02 12:48:00,
2013-07-02 08:54:00,75.1,73.6,30.11,South,186,3.0,6.0,95,0.00,,,0.00,53,Wunderground v.1.15,2013-07-02 12:54:00,
2013-07-02 09:00:00,75.3,73.8,30.11,SW,226,3.0,3.0,95,0.00,,,0.00,107,Wunderground v.1.15,2013-07-02 13:00:00,
2013-07-02 09:06:00,75.4,74.2,30.11,SSW,195,3.0,5.0,96,0.00,,,0.00,125,Wunderground v.1.15,2013-07-02 13:06:00,
2013-07-02 09:12:00,75.6,74.1,30.11,SSE,151,3.0,3.0,95,0.00,,,0.00,164,Wunderground v.1.15,2013-07-02 13:12:00,
2013-07-02 09:18:00,76.0,74.5,30.11,SSW,210,3.0,5.0,95,0.00,,,0.00,146,Wunderground v.1.15,2013-07-02 13:18:00,
2013-07-02 09:24:00,76.1,74.2,30.11,SSW,195,4.0,6.0,94,0.00,,,0.00,185,Wunderground v.1.15,2013-07-02 13:24:00,
2013-07-02 09:30:00,76.3,74.1,30.11,South,189,5.0,6.0,93,0.00,,,0.00,181,Wunderground v.1.15,2013-07-02 13:30:00,
2013-07-02 09:36:00,76.7,74.8,30.11,South,188,3.0,6.0,94,0.00,,,0.00,225,Wunderground v.1.15,2013-07-02 13:36:00,
2013-07-02 09:42:00,77.2,75.0,30.11,SW,224,2.0,3.0,93,0.00,,,0.00,239,Wunderground v.1.15,2013-07-02 13:42:00,
2013-07-02 09:48:00,77.4,74.6,30.11,SSW,199,2.0,10.0,91,0.00,,,0.00,194,Wunderground v.1.15,2013-07-02 13:48:00,
2013-07-02 09:54:00,77.4,74.6,30.11,South,179,4.0,5.0,91,0.00,,,0.00,179,Wunderground v.1.15,2013-07-02 13:54:00,
2013-07-02 10:00:00,77.4,74.2,30.11,SSW,203,4.0,5.0,90,0.00,,,0.00,220,Wunderground v.1.15,2013-07-02 14:00:00,
2013-07-02 10:06:00,77.7,74.2,30.11,SSW,198,4.0,8.0,89,0.00,,,0.00,303,Wunderground v.1.15,2013-07-02 14:06:00,
2013-07-02 10:12:00,78.1,74.9,30.11,SSW,198,4.0,10.0,90,0.00,,,0.00,378,Wunderground v.1.15,2013-07-02 14:12:00,
2013-07-02 10:18:00,78.5,74.3,30.11,SSW,195,5.0,10.0,87,0.00,,,0.00,359,Wunderground v.1.15,2013-07-02 14:18:00,
2013-07-02 10:24:00,78.6,74.1,30.11,South,191,4.0,8.0,86,0.00,,,0.00,282,Wunderground v.1.15,2013-07-02 14:24:00,
2013-07-02 10:31:00,78.8,74.6,30.12,SW,233,4.0,5.0,87,0.00,,,0.00,340,Wunderground v.1.15,2013-07-02 14:31:00,
2013-07-02 10:36:00,79.0,74.5,30.12,SSW,206,5.0,8.0,86,0.00,,,0.00,343,Wunderground v.1.15,2013-07-02 14:36:00,
2013-07-02 10:42:00,79.2,75.0,30.12,SW,230,5.0,5.0,87,0.00,,,0.00,179,Wunderground v.1.15,2013-07-02 14:42:00,
2013-07-02 10:48:00,79.2,74.6,30.11,SSW,206,3.0,5.0,86,0.00,,,0.00,290,Wunderground v.1.15,2013-07-02 14:48:00,
2013-07-02 10:54:00,79.2,74.3,30.11,SW,220,3.0,4.0,85,0.00,,,0.00,299,Wunderground v.1.15,2013-07-02 14:54:00,
2013-07-02 11:00:00,79.0,74.5,30.12,SSW,196,2.0,2.0,86,0.00,,,0.00,121,Wunderground v.1.15,2013-07-02 15:00:00,
2013-07-02 11:06:00,79.0,74.8,30.12,West,268,1.0,2.0,87,0.00,,,0.00,74,Wunderground v.1.15,2013-07-02 15:06:00,
2013-07-02 11:12:00,79.0,74.8,30.12,WNW,298,2.0,17.0,87,0.26,,,0.01,9,Wunderground v.1.15,2013-07-02 15:12:00,
2013-07-02 11:18:00,77.2,73.4,30.13,SSW,199,7.0,17.0,88,0.76,,,0.18,14,Wunderground v.1.15,2013-07-02 15:18:00,
2013-07-02 11:24:00,75.4,71.9,30.13,SSW,202,8.0,8.0,89,0.34,,,0.22,11,Wunderground v.1.15,2013-07-02 15:24:00,
2013-07-02 11:30:00,74.2,71.4,30.15,WSW,237,5.0,5.0,91,0.11,,,0.23,18,Wunderground v.1.15,2013-07-02 15:30:00,
2013-07-02 11:36:00,73.7,71.2,30.15,SW,234,4.0,5.0,92,0.16,,,0.24,46,Wunderground v.1.15,2013-07-02 15:36:00,
2013-07-02 11:42:00,73.3,71.2,30.15,NW,323,4.0,4.0,93,0.19,,,0.26,67,Wunderground v.1.15,2013-07-02 15:42:00,
2013-07-02 11:48:00,73.0,71.2,30.15,WSW,248,2.0,7.0,94,0.18,,,0.28,69,Wunderground v.1.15,2013-07-02 15:48:00,
2013-07-02 11:54:00,72.8,71.0,30.15,SSW,213,3.0,10.0,94,0.28,,,0.30,56,Wunderground v.1.15,2013-07-02 15:54:00,
2013-07-02 12:00:00,72.5,71.0,30.16,South,175,5.0,5.0,95,0.20,,,0.32,62,Wunderground v.1.15,2013-07-02 16:00:00,
2013-07-02 12:06:00,72.5,71.3,30.16,SW,217,3.0,5.0,96,0.08,,,0.33,46,Wunderground v.1.15,2013-07-02 16:06:00,
2013-07-02 12:12:00,72.3,71.1,30.16,SSE,162,2.0,5.0,96,0.20,,,0.35,33,Wunderground v.1.15,2013-07-02 16:12:00,
2013-07-02 12:18:00,72.3,71.1,30.17,SSW,198,3.0,6.0,96,0.29,,,0.37,30,Wunderground v.1.15,2013-07-02 16:18:00,
2013-07-02 12:24:00,72.1,71.2,30.17,SSW,206,4.0,6.0,97,0.25,,,0.40,32,Wunderground v.1.15,2013-07-02 16:24:00,
2013-07-02 12:30:00,72.0,71.1,30.16,South,185,4.0,4.0,97,0.26,,,0.43,33,Wunderground v.1.15,2013-07-02 16:30:00,
2013-07-02 12:36:00,71.8,70.9,30.16,SSW,213,4.0,5.0,97,0.24,,,0.45,35,Wunderground v.1.15,2013-07-02 16:36:00,
2013-07-02 12:42:00,71.8,70.9,30.16,SW,224,3.0,4.0,97,0.21,,,0.47,39,Wunderground v.1.15,2013-07-02 16:42:00,
2013-07-02 12:48:00,71.8,70.9,30.15,SW,220,3.0,5.0,97,0.23,,,0.50,48,Wunderground v.1.15,2013-07-02 16:48:00,
2013-07-02 12:54:00,71.8,71.2,30.15,SSW,209,3.0,4.0,98,0.28,,,0.52,48,Wunderground v.1.15,2013-07-02 16:54:00,
2013-07-02 13:00:00,71.8,71.2,30.15,South,176,3.0,3.0,98,0.22,,,0.54,49,Wunderground v.1.15,2013-07-02 17:00:00,
2013-07-02 13:06:00,71.8,71.2,30.15,SSW,195,3.0,3.0,98,0.15,,,0.56,55,Wunderground v.1.15,2013-07-02 17:06:00,
2013-07-02 13:12:00,71.8,71.2,30.15,SSW,205,3.0,4.0,98,0.12,,,0.57,72,Wunderground v.1.15,2013-07-02 17:12:00,
2013-07-02 13:18:00,71.8,71.2,30.15,SW,224,3.0,5.0,98,0.08,,,0.57,100,Wunderground v.1.15,2013-07-02 17:18:00,
2013-07-02 13:24:00,72.1,71.5,30.15,SW,232,3.0,3.0,98,0.04,,,0.57,123,Wunderground v.1.15,2013-07-02 17:24:00,
2013-07-02 13:30:00,72.3,72.0,30.15,SSE,157,2.0,2.0,99,0.00,,,0.57,123,Wunderground v.1.15,2013-07-02 17:30:00,
2013-07-02 13:36:00,72.5,71.9,30.15,SW,217,2.0,4.0,98,0.00,,,0.58,123,Wunderground v.1.15,2013-07-02 17:36:00,
2013-07-02 13:42:00,72.5,71.9,30.15,SW,217,2.0,3.0,98,0.00,,,0.58,128,Wunderground v.1.15,2013-07-02 17:42:00,
2013-07-02 13:48:00,72.5,72.2,30.15,South,176,2.0,3.0,99,0.05,,,0.59,125,Wunderground v.1.15,2013-07-02 17:48:00,
2013-07-02 13:54:00,72.7,72.4,30.15,South,186,2.0,2.0,99,0.05,,,0.59,107,Wunderground v.1.15,2013-07-02 17:54:00,
2013-07-02 14:00:00,72.8,72.5,30.15,SSW,195,1.0,2.0,99,0.04,,,0.59,148,Wunderground v.1.15,2013-07-02 18:00:00,
2013-07-02 14:06:00,73.0,72.7,30.15,South,171,3.0,3.0,99,0.00,,,0.59,230,Wunderground v.1.15,2013-07-02 18:06:00,
2013-07-02 14:12:00,73.7,73.4,30.15,South,179,3.0,3.0,99,0.00,,,0.59,287,Wunderground v.1.15,2013-07-02 18:12:00,
2013-07-02 14:18:00,73.9,73.6,30.15,SSE,158,3.0,3.0,99,0.00,,,0.59,266,Wunderground v.1.15,2013-07-02 18:18:00,
2013-07-02 14:24:00,74.2,73.9,30.15,SW,223,2.0,5.0,99,0.00,,,0.59,273,Wunderground v.1.15,2013-07-02 18:24:00,
2013-07-02 14:31:00,74.0,73.7,30.15,SSW,212,2.0,3.0,99,0.00,,,0.60,222,Wunderground v.1.15,2013-07-02 18:31:00,
2013-07-02 14:36:00,73.9,73.6,30.15,SW,222,3.0,5.0,99,0.00,,,0.60,218,Wunderground v.1.15,2013-07-02 18:36:00,
2013-07-02 14:42:00,73.7,73.4,30.15,SW,222,4.0,4.0,99,0.00,,,0.60,176,Wunderground v.1.15,2013-07-02 18:42:00,
2013-07-02 14:48:00,73.9,73.6,30.16,South,184,4.0,7.0,99,0.00,,,0.60,130,Wunderground v.1.15,2013-07-02 18:48:00,
2013-07-02 14:54:00,73.9,73.3,30.16,SSE,165,3.0,5.0,98,0.00,,,0.60,121,Wunderground v.1.15,2013-07-02 18:54:00,
2013-07-02 15:00:00,73.7,73.1,30.16,South,176,5.0,5.0,98,0.00,,,0.60,123,Wunderground v.1.15,2013-07-02 19:00:00,
2013-07-02 15:06:00,73.5,72.9,30.16,South,188,4.0,5.0,98,0.00,,,0.61,130,Wunderground v.1.15,2013-07-02 19:06:00,
2013-07-02 15:12:00,73.7,73.1,30.16,South,171,3.0,6.0,98,0.00,,,0.61,132,Wunderground v.1.15,2013-07-02 19:12:00,
2013-07-02 15:18:00,73.9,73.6,30.16,South,178,2.0,6.0,99,0.00,,,0.61,107,Wunderground v.1.15,2013-07-02 19:18:00,
2013-07-02 15:24:00,73.9,73.3,30.16,SE,134,2.0,2.0,98,0.04,,,0.62,116,Wunderground v.1.15,2013-07-02 19:24:00,
2013-07-02 15:30:00,73.7,73.1,30.16,South,182,3.0,3.0,98,0.04,,,0.62,160,Wunderground v.1.15,2013-07-02 19:30:00,
2013-07-02 15:36:00,73.9,73.6,30.16,SSW,203,4.0,5.0,99,0.05,,,0.63,213,Wunderground v.1.15,2013-07-02 19:36:00,
2013-07-02 15:42:00,74.0,73.7,30.16,South,189,3.0,7.0,99,0.05,,,0.63,241,Wunderground v.1.15,2013-07-02 19:42:00,
2013-07-02 15:48:00,74.2,73.9,30.15,South,189,3.0,7.0,99,0.04,,,0.63,229,Wunderground v.1.15,2013-07-02 19:48:00,
2013-07-02 15:54:00,74.6,74.0,30.15,SSE,157,3.0,5.0,98,0.00,,,0.63,225,Wunderground v.1.15,2013-07-02 19:54:00,
2013-07-02 16:01:00,74.9,74.6,30.15,SW,232,2.0,2.0,99,0.00,,,0.63,269,Wunderground v.1.15,2013-07-02 20:01:00,
2013-07-02 16:06:00,74.7,74.1,30.15,SW,232,2.0,5.0,98,0.00,,,0.63,250,Wunderground v.1.15,2013-07-02 20:06:00,
2013-07-02 16:12:00,74.7,74.1,30.15,SW,220,2.0,2.0,98,0.00,,,0.63,192,Wunderground v.1.15,2013-07-02 20:12:00,
2013-07-02 16:18:00,75.1,74.5,30.15,SSW,209,2.0,2.0,98,0.00,,,0.63,206,Wunderground v.1.15,2013-07-02 20:18:00,
2013-07-02 16:24:00,75.1,74.5,30.15,SSW,209,2.0,3.0,98,0.00,,,0.63,190,Wunderground v.1.15,2013-07-02 20:24:00,
2013-07-02 16:30:00,74.6,73.7,30.15,SSW,202,3.0,5.0,97,0.00,,,0.63,153,Wunderground v.1.15,2013-07-02 20:30:00,
2013-07-02 16:36:00,74.4,73.5,30.15,SSW,202,3.0,5.0,97,0.00,,,0.63,135,Wunderground v.1.15,2013-07-02 20:36:00,
2013-07-02 16:42:00,74.6,73.7,30.15,SSW,202,2.0,2.0,97,0.00,,,0.63,134,Wunderground v.1.15,2013-07-02 20:42:00,
2013-07-02 16:48:00,74.6,73.7,30.15,SSW,198,2.0,5.0,97,0.00,,,0.63,123,Wunderground v.1.15,2013-07-02 20:48:00,
2013-07-02 16:54:00,74.6,73.7,30.15,SSW,196,2.0,2.0,97,0.00,,,0.63,127,Wunderground v.1.15,2013-07-02 20:54:00,
2013-07-02 17:00:00,74.6,73.7,30.15,South,185,2.0,2.0,97,0.00,,,0.63,128,Wunderground v.1.15,2013-07-02 21:00:00,
2013-07-02 17:06:00,74.7,74.1,30.15,South,185,2.0,5.0,98,0.00,,,0.63,132,Wunderground v.1.15,2013-07-02 21:06:00,
2013-07-02 17:12:00,74.9,74.3,30.15,South,185,1.0,2.0,98,0.00,,,0.63,155,Wunderground v.1.15,2013-07-02 21:12:00,
2013-07-02 17:18:00,74.9,74.3,30.14,South,185,1.0,2.0,98,0.00,,,0.63,172,Wunderground v.1.15,2013-07-02 21:18:00,
2013-07-02 17:24:00,75.1,74.5,30.14,South,181,1.0,2.0,98,0.00,,,0.63,165,Wunderground v.1.15,2013-07-02 21:24:00,
2013-07-02 17:30:00,75.1,74.2,30.14,SSE,164,2.0,5.0,97,0.00,,,0.63,155,Wunderground v.1.15,2013-07-02 21:30:00,
2013-07-02 17:36:00,74.9,74.0,30.14,SSW,206,3.0,6.0,97,0.00,,,0.63,130,Wunderground v.1.15,2013-07-02 21:36:00,
2013-07-02 17:42:00,75.1,74.5,30.14,SSE,162,2.0,3.0,98,0.00,,,0.63,148,Wunderground v.1.15,2013-07-02 21:42:00,
2013-07-02 17:48:00,75.1,74.5,30.14,South,188,1.0,3.0,98,0.00,,,0.63,130,Wunderground v.1.15,2013-07-02 21:48:00,
2013-07-02 17:54:00,75.3,74.7,30.14,South,188,1.0,2.0,98,0.00,,,0.63,121,Wunderground v.1.15,2013-07-02 21:54:00,
2013-07-02 18:00:00,75.3,74.4,30.14,SE,124,1.0,1.0,97,0.00,,,0.63,100,Wunderground v.1.15,2013-07-02 22:00:00,
2013-07-02 18:06:00,75.1,74.2,30.14,SSW,203,2.0,5.0,97,0.00,,,0.63,95,Wunderground v.1.15,2013-07-02 22:06:00,
2013-07-02 18:12:00,74.9,74.0,30.14,SSW,196,4.0,5.0,97,0.00,,,0.63,143,Wunderground v.1.15,2013-07-02 22:12:00,
2013-07-02 18:18:00,75.1,74.5,30.14,SSW,205,3.0,5.0,98,0.00,,,0.63,151,Wunderground v.1.15,2013-07-02 22:18:00,
2013-07-02 18:24:00,75.3,74.4,30.14,South,188,2.0,3.0,97,0.00,,,0.63,132,Wunderground v.1.15,2013-07-02 22:24:00,
2013-07-02 18:30:00,75.1,74.2,30.14,SSW,200,3.0,5.0,97,0.00,,,0.63,118,Wunderground v.1.15,2013-07-02 22:30:00,
2013-07-02 18:36:00,75.1,74.2,30.14,South,189,2.0,5.0,97,0.00,,,0.63,95,Wunderground v.1.15,2013-07-02 22:36:00,
2013-07-02 18:42:00,75.1,74.2,30.14,South,189,2.0,3.0,97,0.00,,,0.63,102,Wunderground v.1.15,2013-07-02 22:42:00,
2013-07-02 18:48:00,75.1,74.2,30.15,South,189,2.0,5.0,97,0.00,,,0.63,111,Wunderground v.1.15,2013-07-02 22:48:00,
2013-07-02 18:54:00,75.3,74.4,30.15,South,189,2.0,2.0,97,0.00,,,0.63,74,Wunderground v.1.15,2013-07-02 22:54:00,
2013-07-02 19:00:00,75.3,74.4,30.15,South,188,2.0,2.0,97,0.00,,,0.63,69,Wunderground v.1.15,2013-07-02 23:00:00,
2013-07-02 19:06:00,75.1,74.2,30.15,SSW,206,2.0,3.0,97,0.00,,,0.63,53,Wunderground v.1.15,2013-07-02 23:06:00,
2013-07-02 19:12:00,74.9,74.0,30.15,South,174,3.0,4.0,97,0.00,,,0.63,46,Wunderground v.1.15,2013-07-02 23:12:00,
2013-07-02 19:18:00,74.9,74.0,30.15,SSE,160,3.0,5.0,97,0.00,,,0.63,39,Wunderground v.1.15,2013-07-02 23:18:00,
2013-07-02 19:24:00,74.7,73.8,30.15,SSE,158,3.0,3.0,97,0.00,,,0.63,25,Wunderground v.1.15,2013-07-02 23:24:00,
2013-07-02 19:30:00,74.7,73.8,30.16,SW,217,3.0,3.0,97,0.00,,,0.63,21,Wunderground v.1.15,2013-07-02 23:30:00,
2013-07-02 19:36:00,74.7,73.8,30.16,South,182,2.0,3.0,97,0.00,,,0.63,19,Wunderground v.1.15,2013-07-02 23:36:00,
2013-07-02 19:42:00,74.6,73.7,30.16,SSW,192,1.0,2.0,97,0.00,,,0.64,19,Wunderground v.1.15,2013-07-02 23:42:00,
2013-07-02 19:48:00,74.6,73.7,30.17,SSW,200,2.0,2.0,97,0.00,,,0.64,21,Wunderground v.1.15,2013-07-02 23:48:00,
2013-07-02 19:54:00,74.4,73.5,30.17,SSW,199,3.0,5.0,97,0.00,,,0.64,19,Wunderground v.1.15,2013-07-02 23:54:00,
2013-07-02 19:58:00,74.4,73.5,30.17,South,185,3.0,5.0,97,0.00,,,0.64,18,Wunderground v.1.15,2013-07-02 23:58:00,
2013-07-02 20:04:00,74.4,73.5,30.17,South,181,2.0,3.0,97,0.00,,,0.64,18,Wunderground v.1.15,2013-07-03 00:04:00,
2013-07-02 20:10:00,74.2,73.3,30.17,SSE,164,1.0,1.0,97,0.00,,,0.64,12,Wunderground v.1.15,2013-07-03 00:10:00,
2013-07-02 20:12:00,74.2,73.3,30.17,SSE,164,1.0,1.0,97,0.00,,,0.64,12,Wunderground v.1.15,2013-07-03 00:12:00,
2013-07-02 20:14:00,74.2,73.3,30.17,SSE,164,1.0,1.0,97,0.00,,,0.64,11,Wunderground v.1.15,2013-07-03 00:14:00,
2013-07-02 20:20:00,74.2,73.3,30.17,SSE,164,1.0,2.0,97,0.00,,,0.64,9,Wunderground v.1.15,2013-07-03 00:20:00,
2013-07-02 20:26:00,74.2,73.3,30.17,SSE,152,1.0,5.0,97,0.00,,,0.64,7,Wunderground v.1.15,2013-07-03 00:26:00,
2013-07-02 20:28:00,74.2,73.3,30.17,SSE,152,1.0,5.0,97,0.00,,,0.64,5,Wunderground v.1.15,2013-07-03 00:28:00,
2013-07-02 20:34:00,74.0,73.1,30.17,SSE,152,1.0,2.0,97,0.00,,,0.64,0,Wunderground v.1.15,2013-07-03 00:34:00,
2013-07-02 20:36:00,74.0,73.4,30.17,SSE,152,1.0,2.0,98,0.00,,,0.64,0,Wunderground v.1.15,2013-07-03 00:36:00,
2013-07-02 20:42:00,74.0,73.4,30.17,SSE,152,0.0,0.0,98,0.00,,,0.64,0,Wunderground v.1.15,2013-07-03 00:42:00,
2013-07-02 20:48:00,74.0,73.4,30.17,SSE,152,0.0,0.0,98,0.00,,,0.64,0,Wunderground v.1.15,2013-07-03 00:48:00,
2013-07-02 20:54:00,73.9,73.3,30.17,SSE,152,0.0,2.0,98,0.00,,,0.64,0,Wunderground v.1.15,2013-07-03 00:54:00,
2013-07-02 21:00:00,73.9,73.3,30.17,SSE,152,0.0,0.0,98,0.00,,,0.64,0,Wunderground v.1.15,2013-07-03 01:00:00,
2013-07-02 21:04:00,73.9,73.3,30.17,SSE,152,0.0,0.0,98,0.00,,,0.64,0,Wunderground v.1.15,2013-07-03 01:04:00,
2013-07-02 21:10:00,73.9,73.3,30.17,SSE,152,0.0,0.0,98,0.00,,,0.64,0,Wunderground v.1.15,2013-07-03 01:10:00,
2013-07-02 21:12:00,73.9,73.3,30.17,SSE,152,0.0,0.0,98,0.00,,,0.64,0,Wunderground v.1.15,2013-07-03 01:12:00,
2013-07-02 21:18:00,73.9,73.3,30.17,SSE,152,0.0,1.0,98,0.00,,,0.64,0,Wunderground v.1.15,2013-07-03 01:18:00,
2013-07-02 21:24:00,73.7,73.1,30.17,SSE,152,1.0,1.0,98,0.00,,,0.64,0,Wunderground v.1.15,2013-07-03 01:24:00,
2013-07-02 21:30:00,73.7,73.1,30.18,SSE,152,1.0,1.0,98,0.00,,,0.64,0,Wunderground v.1.15,2013-07-03 01:30:00,
2013-07-02 21:34:00,73.7,73.1,30.18,SSE,152,1.0,2.0,98,0.00,,,0.64,0,Wunderground v.1.15,2013-07-03 01:34:00,
2013-07-02 21:40:00,73.7,73.1,30.18,SSE,152,1.0,2.0,98,0.00,,,0.64,0,Wunderground v.1.15,2013-07-03 01:40:00,
2013-07-02 21:46:00,73.7,73.1,30.18,South,172,1.0,2.0,98,0.00,,,0.64,0,Wunderground v.1.15,2013-07-03 01:46:00,
2013-07-02 21:50:00,73.7,73.1,30.18,South,172,1.0,2.0,98,0.00,,,0.64,0,Wunderground v.1.15,2013-07-03 01:50:00,
2013-07-02 21:56:00,73.7,73.1,30.18,South,172,1.0,2.0,98,0.00,,,0.64,0,Wunderground v.1.15,2013-07-03 01:56:00,
2013-07-02 22:02:00,73.7,73.1,30.18,South,172,1.0,1.0,98,0.00,,,0.64,0,Wunderground v.1.15,2013-07-03 02:02:00,
2013-07-02 22:08:00,73.7,73.1,30.18,South,172,1.0,1.0,98,0.00,,,0.64,0,Wunderground v.1.15,2013-07-03 02:08:00,
2013-07-02 22:14:00,73.7,73.1,30.18,South,172,0.0,2.0,98,0.00,,,0.64,0,Wunderground v.1.15,2013-07-03 02:14:00,
2013-07-02 22:22:00,73.7,73.1,30.18,South,172,1.0,2.0,98,0.00,,,0.64,0,Wunderground v.1.15,2013-07-03 02:22:00,
2013-07-02 22:28:00,73.7,73.4,30.18,South,172,1.0,2.0,99,0.00,,,0.64,0,Wunderground v.1.15,2013-07-03 02:28:00,
2013-07-02 22:34:00,73.7,73.4,30.18,South,172,0.0,2.0,99,0.00,,,0.64,0,Wunderground v.1.15,2013-07-03 02:34:00,
2013-07-02 22:42:00,73.9,73.6,30.18,South,172,1.0,1.0,99,0.00,,,0.64,0,Wunderground v.1.15,2013-07-03 02:42:00,
2013-07-02 22:48:00,73.9,73.6,30.19,South,172,1.0,1.0,99,0.00,,,0.65,0,Wunderground v.1.15,2013-07-03 02:48:00,
2013-07-02 22:56:00,73.9,73.6,30.19,South,172,1.0,2.0,99,0.00,,,0.65,0,Wunderground v.1.15,2013-07-03 02:56:00,
2013-07-02 23:02:00,73.9,73.6,30.18,South,172,1.0,2.0,99,0.00,,,0.65,0,Wunderground v.1.15,2013-07-03 03:02:00,
2013-07-02 23:06:00,73.9,73.6,30.18,South,172,1.0,2.0,99,0.00,,,0.65,0,Wunderground v.1.15,2013-07-03 03:06:00,
2013-07-02 23:12:00,73.9,73.6,30.18,South,172,2.0,2.0,99,0.00,,,0.65,0,Wunderground v.1.15,2013-07-03 03:12:00,
2013-07-02 23:22:00,73.9,73.6,30.18,South,175,2.0,2.0,99,0.00,,,0.65,0,Wunderground v.1.15,2013-07-03 03:22:00,
2013-07-02 23:28:00,73.9,73.6,30.18,SSE,168,3.0,5.0,99,0.00,,,0.65,0,Wunderground v.1.15,2013-07-03 03:28:00,
2013-07-02 23:34:00,73.9,73.6,30.18,SSW,208,3.0,3.0,99,0.00,,,0.65,0,Wunderground v.1.15,2013-07-03 03:34:00,
2013-07-02 23:40:00,73.9,73.6,30.18,South,172,3.0,5.0,99,0.00,,,0.65,0,Wunderground v.1.15,2013-07-03 03:40:00,
2013-07-02 23:42:00,73.9,73.6,30.18,South,169,3.0,3.0,99,0.00,,,0.65,0,Wunderground v.1.15,2013-07-03 03:42:00,
2013-07-02 23:48:00,73.9,73.6,30.18,SE,145,3.0,4.0,99,0.00,,,0.65,0,Wunderground v.1.15,2013-07-03 03:48:00,
2013-07-02 23:54:00,73.9,73.6,30.18,South,179,2.0,4.0,99,0.00,,,0.65,0,Wunderground v.1.15,2013-07-03 03:54:00,